createdAt,value
2022-10-25T00:01:27.240Z,98600.25
2022-10-25T00:03:55.328Z,98613.44
2022-10-25T00:06:23.013Z,98611.63
2022-10-25T00:08:50.276Z,98601.00
2022-10-25T00:11:23.938Z,98612.91
2022-10-25T00:13:52.854Z,98597.63
2022-10-25T00:16:22.827Z,98595.50
2022-10-25T00:18:50.497Z,98586.47
2022-10-25T00:21:18.028Z,98585.72
2022-10-25T00:23:45.403Z,98572.69
2022-10-25T00:26:12.614Z,98569.78
2022-10-25T00:28:39.898Z,98581.25
2022-10-25T00:31:12.128Z,98583.91
2022-10-25T00:33:40.690Z,98581.16
2022-10-25T00:36:17.059Z,98567.69
2022-10-25T00:38:45.845Z,98554.19
2022-10-25T00:41:21.619Z,98565.03
2022-10-25T00:43:52.946Z,98556.00
2022-10-25T00:46:25.672Z,98555.25
2022-10-25T00:49:14.480Z,98555.47
2022-10-25T00:51:44.370Z,98555.59
2022-10-25T00:54:15.344Z,98546.03
2022-10-25T00:56:45.667Z,98559.31
2022-10-25T00:59:17.279Z,98576.50
2022-10-25T01:01:44.464Z,98580.31
2022-10-25T01:04:15.807Z,98576.06
2022-10-25T01:06:52.880Z,98563.19
2022-10-25T01:09:28.650Z,98570.53
2022-10-25T01:11:55.751Z,98573.38
2022-10-25T01:14:23.525Z,98570.09
2022-10-25T01:17:35.184Z,98576.47
2022-10-25T01:20:13.868Z,98580.06
2022-10-25T01:23:00.681Z,98570.59
2022-10-25T01:25:36.466Z,98568.91
2022-10-25T01:28:24.315Z,98567.41
2022-10-25T01:31:10.082Z,98568.16
2022-10-25T01:33:59.498Z,98575.16
2022-10-25T01:36:32.342Z,98572.81
2022-10-25T01:39:13.452Z,98574.72
2022-10-25T01:41:50.246Z,98581.00
2022-10-25T01:47:04.981Z,98585.94
2022-10-25T01:49:47.197Z,98580.03
2022-10-25T01:52:18.363Z,98580.94
2022-10-25T01:54:45.121Z,98576.09
2022-10-25T01:57:30.941Z,98573.81
2022-10-25T02:00:00.412Z,98576.53
2022-10-25T02:02:39.358Z,98566.22
2022-10-25T02:05:23.140Z,98576.09
2022-10-25T02:08:15.283Z,98585.19
2022-10-25T02:10:51.772Z,98587.84
2022-10-25T02:14:07.473Z,98583.81
2022-10-25T02:16:55.287Z,98578.69
2022-10-25T02:19:33.034Z,98580.59
2022-10-25T02:22:02.680Z,98583.53
2022-10-25T02:24:32.150Z,98587.91
2022-10-25T02:26:59.166Z,98584.03
2022-10-25T02:29:30.168Z,98590.94
2022-10-25T02:31:57.149Z,98590.09
2022-10-25T02:34:24.873Z,98590.19
2022-10-25T02:36:53.383Z,98589.44
2022-10-25T02:39:27.886Z,98596.00
2022-10-25T02:41:57.389Z,98589.94
2022-10-25T02:44:24.724Z,98591.81
2022-10-25T02:46:51.447Z,98587.38
2022-10-25T02:49:18.443Z,98587.38
2022-10-25T02:51:45.395Z,98596.16
2022-10-25T02:54:12.408Z,98584.72
2022-10-25T02:56:39.132Z,98595.31
2022-10-25T02:59:06.120Z,98594.38
2022-10-25T03:01:33.178Z,98594.47
2022-10-25T03:04:00.208Z,98598.81
2022-10-25T03:06:26.965Z,98591.81
2022-10-25T03:08:53.948Z,98587.50
2022-10-25T03:11:20.737Z,98587.56
2022-10-25T03:13:47.688Z,98583.13
2022-10-25T03:16:14.550Z,98585.13
2022-10-25T03:18:41.615Z,98588.91
2022-10-25T03:21:08.443Z,98581.16
2022-10-25T03:23:35.738Z,98585.13
2022-10-25T03:26:02.623Z,98579.09
2022-10-25T03:28:30.519Z,98578.25
2022-10-25T03:30:59.158Z,98576.72
2022-10-25T03:33:27.083Z,98577.69
2022-10-25T03:35:54.894Z,98581.28
2022-10-25T03:38:22.449Z,98579.75
2022-10-25T03:40:49.281Z,98583.44
2022-10-25T03:43:16.459Z,98585.25
2022-10-25T03:45:43.357Z,98584.50
2022-10-25T03:48:10.479Z,98584.28
2022-10-25T03:50:37.323Z,98579.94
2022-10-25T03:53:05.606Z,98582.53
2022-10-25T03:55:33.527Z,98570.22
2022-10-25T03:58:00.557Z,98558.84
2022-10-25T04:00:27.888Z,98561.50
2022-10-25T04:03:01.949Z,98562.47
2022-10-25T04:05:30.426Z,98565.88
2022-10-25T04:07:57.635Z,98568.53
2022-10-25T04:10:25.314Z,98562.25
2022-10-25T04:12:54.047Z,98564.06
2022-10-25T04:15:22.039Z,98562.19
2022-10-25T04:17:50.232Z,98568.41
2022-10-25T04:20:17.517Z,98564.81
2022-10-25T04:22:44.629Z,98566.63
2022-10-25T04:25:11.521Z,98568.22
2022-10-25T04:27:38.517Z,98565.66
2022-10-25T04:30:05.666Z,98555.91
2022-10-25T04:32:32.729Z,98563.22
2022-10-25T04:34:59.508Z,98571.16
2022-10-25T04:37:26.476Z,98564.06
2022-10-25T04:39:53.239Z,98567.47
2022-10-25T04:42:20.299Z,98573.69
2022-10-25T04:44:47.087Z,98566.63
2022-10-25T04:47:14.073Z,98573.63
2022-10-25T04:49:40.881Z,98568.13
2022-10-25T04:52:07.891Z,98571.63
2022-10-25T04:54:34.710Z,98577.69
2022-10-25T04:57:01.892Z,98579.47
2022-10-25T04:59:28.870Z,98580.34
2022-10-25T05:01:55.869Z,98574.28
2022-10-25T05:04:22.639Z,98573.16
2022-10-25T05:06:49.739Z,98569.53
2022-10-25T05:09:16.590Z,98580.88
2022-10-25T05:11:43.592Z,98574.75
2022-10-25T05:14:10.418Z,98586.94
2022-10-25T05:16:39.196Z,98581.66
2022-10-25T05:19:06.220Z,98586.09
2022-10-25T05:21:33.249Z,98576.34
2022-10-25T05:24:01.996Z,98586.66
2022-10-25T05:26:30.658Z,98593.63
2022-10-25T05:28:57.571Z,98590.81
2022-10-25T05:31:27.082Z,98589.97
2022-10-25T05:33:55.248Z,98577.75
2022-10-25T05:36:22.276Z,98582.94
2022-10-25T05:38:49.220Z,98579.47
2022-10-25T05:41:17.918Z,98582.88
2022-10-25T05:43:45.648Z,98576.53
2022-10-25T05:46:16.114Z,98579.91
2022-10-25T05:48:48.455Z,98587.66
2022-10-25T05:51:32.126Z,98588.81
2022-10-25T05:54:02.810Z,98599.31
2022-10-25T05:56:31.911Z,98608.09
2022-10-25T05:59:02.299Z,98608.22
2022-10-25T06:01:29.491Z,98619.84
2022-10-25T06:03:56.397Z,98623.06
2022-10-25T06:06:23.546Z,98631.09
2022-10-25T06:08:55.289Z,98633.66
2022-10-25T06:11:22.326Z,98635.19
2022-10-25T06:13:49.331Z,98643.31
2022-10-25T06:16:18.479Z,98646.91
2022-10-25T06:18:45.483Z,98652.00
2022-10-25T06:21:14.098Z,98652.00
2022-10-25T06:23:42.251Z,98645.66
2022-10-25T06:26:11.605Z,98652.00
2022-10-25T06:28:38.839Z,98657.97
2022-10-25T06:31:14.777Z,98655.13
2022-10-25T06:33:42.592Z,98653.31
2022-10-25T06:36:14.848Z,98655.97
2022-10-25T06:38:41.768Z,98651.44
2022-10-25T06:41:37.160Z,98669.97
2022-10-25T06:44:06.449Z,98669.06
2022-10-25T06:46:57.914Z,98661.94
2022-10-25T06:49:23.394Z,98667.25
2022-10-25T06:51:50.359Z,98660.91
2022-10-25T06:54:17.170Z,98652.66
2022-10-25T06:56:44.254Z,98661.38
2022-10-25T06:59:11.418Z,98649.72
2022-10-25T07:01:38.487Z,98648.78
2022-10-25T07:04:05.570Z,98644.88
2022-10-25T07:06:36.171Z,98638.22
2022-10-25T07:09:05.083Z,98647.28
2022-10-25T07:11:33.141Z,98653.44
2022-10-25T07:14:01.309Z,98636.50
2022-10-25T07:16:28.746Z,98642.91
2022-10-25T07:19:00.433Z,98643.25
2022-10-25T07:21:28.279Z,98646.22
2022-10-25T07:23:55.380Z,98646.56
2022-10-25T07:26:26.115Z,98651.47
2022-10-25T07:28:54.447Z,98654.88
2022-10-25T07:31:24.701Z,98666.66
2022-10-25T07:33:53.214Z,98670.81
2022-10-25T07:36:21.181Z,98674.03
2022-10-25T07:38:48.298Z,98671.81
2022-10-25T07:41:15.601Z,98676.16
2022-10-25T07:43:42.716Z,98678.16
2022-10-25T07:46:09.841Z,98689.53
2022-10-25T07:48:36.867Z,98698.78
2022-10-25T07:51:06.227Z,98706.50
2022-10-25T07:53:33.142Z,98715.09
2022-10-25T07:56:00.537Z,98702.69
2022-10-25T07:58:27.339Z,98690.06
2022-10-25T08:01:04.107Z,98681.88
2022-10-25T08:03:31.677Z,98687.75
2022-10-25T08:05:59.017Z,98692.78
2022-10-25T08:08:26.226Z,98702.53
2022-10-25T08:10:53.842Z,98689.66
2022-10-25T08:13:21.078Z,98688.50
2022-10-25T08:15:52.681Z,98683.91
2022-10-25T08:18:19.943Z,98677.09
2022-10-25T08:21:01.676Z,98686.09
2022-10-25T08:23:29.331Z,98692.50
2022-10-25T08:25:56.292Z,98688.25
2022-10-25T08:28:23.076Z,98701.03
2022-10-25T08:30:50.172Z,98689.97
2022-10-25T08:33:16.940Z,98688.69
2022-10-25T08:35:43.882Z,98686.84
2022-10-25T08:38:10.640Z,98687.16
2022-10-25T08:40:59.006Z,98687.78
2022-10-25T08:43:44.436Z,98691.16
2022-10-25T08:46:27.015Z,98685.34
2022-10-25T08:49:10.542Z,98672.53
2022-10-25T08:51:41.971Z,98690.69
2022-10-25T08:54:28.865Z,98703.81
2022-10-25T08:57:16.208Z,98714.78
2022-10-25T08:59:47.538Z,98717.88
2022-10-25T09:02:23.051Z,98720.25
2022-10-25T09:04:49.965Z,98713.72
2022-10-25T09:07:25.779Z,98701.69
2022-10-25T09:10:03.367Z,98704.09
2022-10-25T09:12:39.517Z,98708.16
2022-10-25T09:15:25.011Z,98705.81
2022-10-25T09:17:53.898Z,98710.34
2022-10-25T09:20:36.610Z,98713.34
2022-10-25T09:26:16.922Z,98714.41
2022-10-25T09:28:57.953Z,98726.34
2022-10-25T09:31:25.660Z,98731.75
2022-10-25T09:34:06.076Z,98726.06
2022-10-25T09:36:46.577Z,98727.03
2022-10-25T09:39:25.750Z,98718.44
2022-10-25T09:41:54.672Z,98728.44
2022-10-25T09:44:42.219Z,98720.09
2022-10-25T09:47:18.767Z,98718.78
2022-10-25T09:49:57.999Z,98711.91
2022-10-25T09:52:54.642Z,98719.78
2022-10-25T09:55:39.475Z,98722.56
2022-10-25T09:58:09.271Z,98724.88
2022-10-25T10:00:40.503Z,98718.09
2022-10-25T10:03:11.850Z,98715.06
2022-10-25T10:05:44.841Z,98715.13
2022-10-25T10:08:11.635Z,98710.50
2022-10-25T10:10:40.112Z,98709.50
2022-10-25T10:13:22.085Z,98705.25
2022-10-25T10:15:59.821Z,98709.16
2022-10-25T10:18:33.143Z,98701.47
2022-10-25T10:21:12.384Z,98697.50
2022-10-25T10:23:53.437Z,98694.56
2022-10-25T10:26:20.387Z,98697.00
2022-10-25T10:28:49.600Z,98689.38
2022-10-25T10:31:18.830Z,98690.16
2022-10-25T10:33:50.511Z,98685.69
2022-10-25T10:36:29.119Z,98690.06
2022-10-25T10:39:19.075Z,98682.59
2022-10-25T10:42:05.229Z,98680.06
2022-10-25T10:44:36.174Z,98675.94
2022-10-25T10:47:21.056Z,98684.69
2022-10-25T10:49:48.272Z,98683.66
2022-10-25T10:52:45.866Z,98689.06
2022-10-25T10:55:31.528Z,98692.53
2022-10-25T10:58:16.744Z,98700.81
2022-10-25T11:01:11.560Z,98696.63
2022-10-25T11:03:53.498Z,98696.47
2022-10-25T11:06:34.859Z,98688.06
2022-10-25T11:09:19.468Z,98700.16
2022-10-25T11:12:05.705Z,98700.47
2022-10-25T11:14:32.815Z,98705.13
2022-10-25T11:17:29.682Z,98704.19
2022-10-25T11:20:25.155Z,98697.19
2022-10-25T11:23:05.569Z,98697.09
2022-10-25T11:25:44.263Z,98691.53
2022-10-25T11:28:26.002Z,98699.56
2022-10-25T11:31:17.972Z,98702.75
2022-10-25T11:33:52.986Z,98708.94
2022-10-25T11:36:38.731Z,98700.13
2022-10-25T11:39:23.445Z,98690.81
2022-10-25T11:41:55.534Z,98686.88
2022-10-25T11:44:44.332Z,98678.78
2022-10-25T11:47:25.335Z,98683.16
2022-10-25T11:50:17.330Z,98687.94
2022-10-25T11:52:47.172Z,98692.75
2022-10-25T11:55:41.893Z,98691.56
2022-10-25T11:58:39.409Z,98695.03
2022-10-25T12:01:15.497Z,98697.56
2022-10-25T12:04:40.619Z,98700.03
2022-10-25T12:07:19.358Z,98695.91
2022-10-25T12:10:01.737Z,98702.63
2022-10-25T12:12:52.871Z,98696.56
2022-10-25T12:15:41.863Z,98694.94
2022-10-25T12:18:15.320Z,98703.19
2022-10-25T12:20:46.464Z,98709.13
2022-10-25T12:23:18.802Z,98710.78
2022-10-25T12:25:53.684Z,98705.59
2022-10-25T12:28:42.467Z,98704.75
2022-10-25T12:31:26.160Z,98701.88
2022-10-25T12:34:04.051Z,98712.16
2022-10-25T12:36:36.435Z,98716.25
2022-10-25T12:39:16.941Z,98706.44
2022-10-25T12:41:52.290Z,98710.03
2022-10-25T12:44:21.826Z,98703.09
2022-10-25T12:47:04.770Z,98710.22
2022-10-25T12:49:40.367Z,98720.91
2022-10-25T12:52:25.797Z,98719.09
2022-10-25T12:55:14.028Z,98717.19
2022-10-25T12:58:19.902Z,98730.19
2022-10-25T13:00:52.718Z,98720.06
2022-10-25T13:03:19.782Z,98732.13
2022-10-25T13:06:27.391Z,98729.69
2022-10-25T13:09:02.130Z,98724.97
2022-10-25T13:11:38.105Z,98725.94
2022-10-25T13:14:13.568Z,98723.06
2022-10-25T13:16:40.366Z,98725.00
2022-10-25T13:19:42.808Z,98733.13
2022-10-25T13:22:35.751Z,98736.13
2022-10-25T13:25:17.172Z,98736.69
2022-10-25T13:28:29.050Z,98734.56
2022-10-25T13:31:31.175Z,98728.56
2022-10-25T13:34:17.912Z,98737.75
2022-10-25T13:36:52.331Z,98732.16
2022-10-25T13:39:52.342Z,98738.91
2022-10-25T13:42:28.304Z,98749.44
2022-10-25T13:44:59.300Z,98749.81
2022-10-25T13:47:50.628Z,98746.34
2022-10-25T13:50:29.233Z,98744.78
2022-10-25T13:53:04.634Z,98744.41
2022-10-25T13:55:44.622Z,98745.34
2022-10-25T13:58:31.988Z,98747.97
2022-10-25T14:01:18.972Z,98748.66
2022-10-25T14:04:25.176Z,98747.81
2022-10-25T14:06:52.280Z,98739.63
2022-10-25T14:09:27.195Z,98746.13
2022-10-25T14:12:07.836Z,98746.81
2022-10-25T14:14:47.490Z,98747.72
2022-10-25T14:17:34.946Z,98751.41
2022-10-25T14:20:09.526Z,98744.06
2022-10-25T14:22:46.503Z,98751.63
2022-10-25T14:25:27.967Z,98747.72
2022-10-25T14:28:10.066Z,98749.88
2022-10-25T14:30:41.725Z,98750.19
2022-10-25T14:33:26.367Z,98749.66
2022-10-25T14:36:14.133Z,98751.91
2022-10-25T14:38:55.052Z,98752.47
2022-10-25T14:41:33.922Z,98758.97
2022-10-25T14:44:02.262Z,98762.06
2022-10-25T14:46:30.765Z,98764.09
2022-10-25T14:48:59.160Z,98763.03
2022-10-25T14:51:31.634Z,98758.25
2022-10-25T14:54:06.415Z,98766.66
2022-10-25T14:56:38.343Z,98775.28
2022-10-25T14:59:19.878Z,98774.94
2022-10-25T15:01:55.961Z,98776.09
2022-10-25T15:04:32.943Z,98777.78
2022-10-25T15:07:01.799Z,98783.19
2022-10-25T15:09:44.095Z,98782.44
2022-10-25T15:12:11.006Z,98784.94
2022-10-25T15:14:37.941Z,98789.94
2022-10-25T15:17:18.951Z,98783.97
2022-10-25T15:20:04.694Z,98779.94
2022-10-25T15:22:50.690Z,98777.78
2022-10-25T15:25:24.084Z,98776.41
2022-10-25T15:27:54.680Z,98782.75
2022-10-25T15:30:55.658Z,98792.06
2022-10-25T15:33:26.920Z,98784.41
2022-10-25T15:35:59.819Z,98788.31
2022-10-25T15:38:42.022Z,98782.16
2022-10-25T15:41:14.950Z,98792.13
2022-10-25T15:43:42.053Z,98788.81
2022-10-25T15:46:28.902Z,98795.16
2022-10-25T15:48:57.886Z,98787.41
2022-10-25T15:51:27.486Z,98790.25
2022-10-25T15:53:57.899Z,98792.16
2022-10-25T15:56:24.724Z,98793.09
2022-10-25T15:58:51.829Z,98793.19
2022-10-25T16:01:19.129Z,98798.63
2022-10-25T16:03:46.235Z,98799.84
2022-10-25T16:06:14.450Z,98808.00
2022-10-25T16:08:42.412Z,98800.97
2022-10-25T16:11:18.608Z,98811.59
2022-10-25T16:13:49.043Z,98809.16
2022-10-25T16:16:39.306Z,98812.84
2022-10-25T16:19:14.628Z,98813.69
2022-10-25T16:21:41.724Z,98819.22
2022-10-25T16:24:08.806Z,98826.28
2022-10-25T16:26:42.970Z,98824.69
2022-10-25T16:29:21.014Z,98819.38
2022-10-25T16:31:48.351Z,98821.94
2022-10-25T16:34:17.431Z,98820.25
2022-10-25T16:36:44.823Z,98819.50
2022-10-25T16:39:12.026Z,98820.44
2022-10-25T16:41:42.470Z,98823.00
2022-10-25T16:44:15.643Z,98830.13
2022-10-25T16:46:42.727Z,98824.69
2022-10-25T16:49:09.894Z,98837.03
2022-10-25T16:51:37.984Z,98826.28
2022-10-25T16:54:05.746Z,98827.16
2022-10-25T16:56:32.608Z,98828.09
2022-10-25T16:59:00.661Z,98830.75
2022-10-25T17:01:33.772Z,98828.31
2022-10-25T17:04:02.056Z,98825.75
2022-10-25T17:06:44.131Z,98830.28
2022-10-25T17:09:11.425Z,98839.56
2022-10-25T17:11:38.595Z,98835.22
2022-10-25T17:14:06.238Z,98839.78
2022-10-25T17:16:33.457Z,98843.28
2022-10-25T17:19:00.812Z,98843.53
2022-10-25T17:21:28.453Z,98858.69
2022-10-25T17:23:56.540Z,98849.13
2022-10-25T17:26:23.376Z,98855.47
2022-10-25T17:28:50.360Z,98850.53
2022-10-25T17:31:17.821Z,98858.69
2022-10-25T17:33:44.835Z,98853.53
2022-10-25T17:36:14.501Z,98857.31
2022-10-25T17:38:42.211Z,98857.72
2022-10-25T17:41:09.885Z,98857.03
2022-10-25T17:43:39.097Z,98846.13
2022-10-25T17:46:08.461Z,98853.50
2022-10-25T17:48:35.486Z,98862.75
2022-10-25T17:51:04.127Z,98866.63
2022-10-25T17:53:31.568Z,98866.03
2022-10-25T17:55:58.736Z,98864.78
2022-10-25T17:58:25.798Z,98870.31
2022-10-25T18:00:54.550Z,98870.69
2022-10-25T18:03:21.711Z,98878.66
2022-10-25T18:05:48.627Z,98869.16
2022-10-25T18:08:15.932Z,98877.31
2022-10-25T18:10:42.854Z,98865.81
2022-10-25T18:13:09.919Z,98864.91
2022-10-25T18:15:38.354Z,98868.47
2022-10-25T18:18:05.390Z,98868.09
2022-10-25T18:20:32.430Z,98869.28
2022-10-25T18:22:59.514Z,98861.41
2022-10-25T18:25:26.293Z,98865.34
2022-10-25T18:27:53.276Z,98867.34
2022-10-25T18:30:20.122Z,98860.50
2022-10-25T18:32:47.407Z,98854.69
2022-10-25T18:35:14.286Z,98856.91
2022-10-25T18:37:41.336Z,98858.22
2022-10-25T18:40:08.839Z,98861.31
2022-10-25T18:42:36.156Z,98860.63
2022-10-25T18:45:04.289Z,98864.53
2022-10-25T18:47:31.386Z,98859.50
2022-10-25T18:49:58.295Z,98866.84
2022-10-25T18:52:26.431Z,98861.94
2022-10-25T18:54:53.662Z,98871.41
2022-10-25T18:57:20.641Z,98868.47
2022-10-25T18:59:47.703Z,98872.94
2022-10-25T19:02:14.842Z,98871.63
2022-10-25T19:04:41.767Z,98881.81
2022-10-25T19:07:08.794Z,98878.31
2022-10-25T19:09:35.646Z,98882.88
2022-10-25T19:12:02.671Z,98894.53
2022-10-25T19:14:29.482Z,98891.06
2022-10-25T19:16:56.502Z,98888.66
2022-10-25T19:19:23.280Z,98886.06
2022-10-25T19:21:50.363Z,98894.00
2022-10-25T19:24:17.367Z,98902.69
2022-10-25T19:26:45.013Z,98891.97
2022-10-25T19:29:11.832Z,98903.19
2022-10-25T19:31:38.803Z,98904.63
2022-10-25T19:34:05.575Z,98900.75
2022-10-25T19:36:32.849Z,98905.66
2022-10-25T19:38:59.665Z,98905.47
2022-10-25T19:41:27.003Z,98900.91
2022-10-25T19:43:56.423Z,98904.56
2022-10-25T19:46:23.327Z,98909.53
2022-10-25T19:48:50.163Z,98909.63
2022-10-25T19:51:19.111Z,98913.28
2022-10-25T19:53:46.386Z,98901.84
2022-10-25T19:56:16.601Z,98906.25
2022-10-25T19:58:44.201Z,98901.94
2022-10-25T20:01:27.399Z,98902.84
2022-10-25T20:03:55.529Z,98906.13
2022-10-25T20:06:25.294Z,98906.03
2022-10-25T20:08:53.201Z,98911.25
2022-10-25T20:11:21.828Z,98917.06
2022-10-25T20:13:48.665Z,98911.31
2022-10-25T20:16:15.665Z,98909.06
2022-10-25T20:18:42.827Z,98907.63
2022-10-25T20:21:13.062Z,98909.88
2022-10-25T20:23:41.525Z,98923.53
2022-10-25T20:26:12.496Z,98914.34
2022-10-25T20:28:39.593Z,98912.94
2022-10-25T20:31:06.704Z,98910.81
2022-10-25T20:33:33.521Z,98920.34
2022-10-25T20:36:04.814Z,98920.72
2022-10-25T20:38:31.644Z,98924.81
2022-10-25T20:41:07.118Z,98921.19
2022-10-25T20:43:34.651Z,98936.81
2022-10-25T20:46:01.892Z,98934.75
2022-10-25T20:48:29.071Z,98926.59
2022-10-25T20:50:56.130Z,98928.03
2022-10-25T20:53:23.371Z,98927.78
2022-10-25T20:55:50.459Z,98935.38
2022-10-25T20:58:19.422Z,98930.69
2022-10-25T21:00:47.370Z,98943.66
2022-10-25T21:03:15.237Z,98935.44
2022-10-25T21:05:45.418Z,98937.94
2022-10-25T21:08:12.925Z,98939.38
2022-10-25T21:10:41.543Z,98946.97
2022-10-25T21:13:09.309Z,98946.91
2022-10-25T21:15:37.124Z,98947.41
2022-10-25T21:18:04.037Z,98946.28
2022-10-25T21:20:32.632Z,98941.84
2022-10-25T21:22:59.443Z,98939.28
2022-10-25T21:25:26.474Z,98935.00
2022-10-25T21:27:56.613Z,98938.59
2022-10-25T21:30:24.101Z,98930.06
2022-10-25T21:32:50.926Z,98937.41
2022-10-25T21:35:20.774Z,98939.56
2022-10-25T21:37:49.266Z,98941.84
2022-10-25T21:40:18.244Z,98937.84
2022-10-25T21:42:45.081Z,98947.84
2022-10-25T21:45:12.120Z,98950.69
2022-10-25T21:47:38.977Z,98948.94
2022-10-25T21:50:09.275Z,98954.50
2022-10-25T21:52:36.623Z,98949.53
2022-10-25T21:55:04.093Z,98952.63
2022-10-25T21:57:30.931Z,98952.63
2022-10-25T21:59:57.897Z,98948.25
2022-10-25T22:02:24.901Z,98943.81
2022-10-25T22:04:52.052Z,98949.97
2022-10-25T22:07:18.844Z,98947.66
2022-10-25T22:09:46.016Z,98946.81
2022-10-25T22:12:12.775Z,98959.19
2022-10-25T22:14:39.794Z,98952.16
2022-10-25T22:17:08.989Z,98947.88
2022-10-25T22:19:35.858Z,98959.72
2022-10-25T22:22:02.661Z,98954.25
2022-10-25T22:24:29.599Z,98960.50
2022-10-25T22:26:56.396Z,98957.91
2022-10-25T22:29:23.507Z,98959.78
2022-10-25T22:31:50.240Z,98956.38
2022-10-25T22:34:17.260Z,98961.59
2022-10-25T22:36:44.006Z,98960.88
2022-10-25T22:39:11.037Z,98968.06
2022-10-25T22:41:38.097Z,98960.13
2022-10-25T22:44:05.334Z,98960.22
2022-10-25T22:46:34.518Z,98963.47
2022-10-25T22:49:06.996Z,98962.44
2022-10-25T22:51:34.948Z,98959.78
2022-10-25T22:54:01.971Z,98957.91
2022-10-25T22:56:31.150Z,98960.81
2022-10-25T22:59:02.143Z,98953.31
2022-10-25T23:01:35.101Z,98957.81
2022-10-25T23:04:04.458Z,98950.97
2022-10-25T23:06:36.938Z,98956.34
2022-10-25T23:09:07.012Z,98961.63
2022-10-25T23:11:36.264Z,98959.06
2022-10-25T23:14:05.273Z,98960.72
2022-10-25T23:16:32.426Z,98961.38
2022-10-25T23:18:59.575Z,98957.72
2022-10-25T23:21:30.029Z,98965.56
2022-10-25T23:23:58.897Z,98964.66
2022-10-25T23:26:34.238Z,98965.66
2022-10-25T23:29:01.391Z,98969.41
2022-10-25T23:31:29.669Z,98969.41
2022-10-25T23:33:59.194Z,98975.81
2022-10-25T23:36:37.468Z,98982.97
2022-10-25T23:39:06.752Z,98970.59
2022-10-25T23:41:33.635Z,98979.53
2022-10-25T23:44:00.745Z,98976.13
2022-10-25T23:46:27.558Z,98975.34
2022-10-25T23:48:54.559Z,98984.38
2022-10-25T23:51:21.406Z,98977.28
2022-10-25T23:53:48.848Z,98979.19
2022-10-25T23:56:15.762Z,98978.47
2022-10-25T23:58:42.886Z,98974.09
